Time;durP1;ratioP1;P1;durP2;ratioP2;P2;SDS_P1;SDS_P2;PMS_P1;PMS_P2;Temp;Humidity;BMP_temperature;BMP_pressure;BME280_temperature;BME280_humidity;BME280_pressure;Samples;Min_cycle;Max_cycle;Signal;HPM_P1;HPM_P2
2022/10/14 00:06:12;;;;;;;;;;;;;;;13.51;100.00;101305.75;20971992;28;19924;-61
2022/10/14 00:16:34;;;;;;;;;;;;;;;13.50;100.00;101299.66;20978090;28;19924;-62
2022/10/14 00:26:56;;;;;;;;;;;;;;;13.48;100.00;101293.69;20977905;28;20598;-61
2022/10/14 00:37:17;;;;;;;;;;;;;;;13.50;100.00;101293.59;20957512;28;19924;-61
2022/10/14 00:47:40;;;;;;;;;;;;;;;13.47;100.00;101296.44;20972661;28;19935;-61
2022/10/14 00:58:02;;;;;;;;;;;;;;;13.48;100.00;101291.06;20975335;28;19924;-61
2022/10/14 01:08:30;;;;;;;;;;;;;;;13.52;100.00;101289.91;20967286;28;20446;-61
2022/10/14 01:18:58;;;;;;;;;;;;;;;13.49;100.00;101286.69;20978559;28;19989;-63
2022/10/14 01:29:38;;;;;;;;;;;;;;;13.48;100.00;101287.63;20966884;28;19924;-61
2022/10/14 01:40:04;;;;;;;;;;;;;;;13.41;100.00;101273.25;20958109;28;19974;-62
2022/10/14 01:50:26;;;;;;;;;;;;;;;13.46;100.00;101247.59;20970188;28;20013;-61
2022/10/14 02:00:48;;;;;;;;;;;;;;;13.36;100.00;101254.44;20971379;28;19924;-61
2022/10/14 02:11:11;;;;;;;;;;;;;;;13.43;100.00;101260.91;20966370;28;19990;-61
2022/10/14 02:21:42;;;;;;;;;;;;;;;13.40;100.00;101255.06;20966468;28;19982;-61
2022/10/14 02:32:05;;;;;;;;;;;;;;;13.42;100.00;101237.44;20974259;28;19931;-61
2022/10/14 02:42:26;;;;;;;;;;;;;;;13.45;100.00;101248.53;20972060;28;20543;-61
2022/10/14 02:52:48;;;;;;;;;;;;;;;13.49;100.00;101234.31;20956489;28;20538;-62
2022/10/14 03:03:10;;;;;;;;;;;;;;;13.35;100.00;101226.56;20971136;28;19920;-61
2022/10/14 03:13:31;;;;;;;;;;;;;;;13.42;100.00;101217.31;20971098;28;20270;-62
2022/10/14 03:23:52;;;;;;;;;;;;;;;13.31;100.00;101213.81;20970429;28;19921;-62
2022/10/14 03:34:14;;;;;;;;;;;;;;;13.40;100.00;101215.78;20971754;28;20415;-63
2022/10/14 03:44:35;;;;;;;;;;;;;;;13.37;100.00;101224.69;20963706;28;19920;-62
2022/10/14 03:54:56;;;;;;;;;;;;;;;13.37;100.00;101219.44;20995914;28;20336;-63
2022/10/14 04:05:18;;;;;;;;;;;;;;;13.38;100.00;101215.03;20969177;28;19925;-62
2022/10/14 04:15:39;;;;;;;;;;;;;;;13.40;100.00;101206.13;20967604;28;19924;-62
2022/10/14 04:26:05;;;;;;;;;;;;;;;13.45;100.00;101198.78;20960434;28;20422;-62
2022/10/14 04:36:26;;;;;;;;;;;;;;;13.38;100.00;101194.94;20962190;28;19920;-63
2022/10/14 04:46:47;;;;;;;;;;;;;;;13.38;100.00;101194.09;20991635;28;19924;-62
2022/10/14 04:57:09;;;;;;;;;;;;;;;13.41;100.00;101199.13;20962483;28;19920;-62
2022/10/14 05:07:30;;;;;;;;;;;;;;;13.35;100.00;101197.75;20962806;28;19920;-62
2022/10/14 05:17:52;;;;;;;;;;;;;;;13.46;100.00;101180.31;20959670;28;19932;-62
2022/10/14 05:28:13;;;;;;;;;;;;;;;13.25;100.00;101183.63;20958128;28;19928;-62
2022/10/14 05:38:35;;;;;;;;;;;;;;;13.36;100.00;101183.72;20965620;28;19920;-63
2022/10/14 05:48:59;;;;;;;;;;;;;;;13.24;100.00;101184.59;20963609;28;19921;-62
2022/10/14 05:59:21;;;;;;;;;;;;;;;13.30;100.00;101176.28;20952932;28;19920;-62
2022/10/14 06:09:43;;;;;;;;;;;;;;;13.31;100.00;101188.44;20943155;28;19985;-62
2022/10/14 06:20:04;;;;;;;;;;;;;;;13.34;100.00;101177.75;20975831;28;19978;-62
2022/10/14 06:30:26;;;;;;;;;;;;;;;13.28;100.00;101172.13;20969470;28;19977;-63
2022/10/14 06:40:50;;;;;;;;;;;;;;;13.31;100.00;101171.91;20983055;28;19974;-62
2022/10/14 06:51:12;;;;;;;;;;;;;;;13.33;100.00;101170.84;20979337;28;19970;-62
2022/10/14 07:01:33;;;;;;;;;;;;;;;13.24;100.00;101161.03;20980340;28;19920;-62
2022/10/14 07:11:55;;;;;;;;;;;;;;;13.23;100.00;101161.97;20970817;28;19928;-62
2022/10/14 07:22:16;;;;;;;;;;;;;;;13.26;100.00;101164.34;20982788;28;19940;-63
2022/10/14 07:32:38;;;;;;;;;;;;;;;13.29;100.00;101172.00;20974246;28;20482;-63
2022/10/14 07:42:59;;;;;;;;;;;;;;;13.30;100.00;101160.59;20965480;28;19986;-62
2022/10/14 07:53:21;;;;;;;;;;;;;;;13.28;100.00;101141.50;20970491;28;19985;-63
2022/10/14 08:03:43;;;;;;;;;;;;;;;13.37;100.00;101146.13;20971251;28;20380;-64
2022/10/14 08:14:05;;;;;;;;;;;;;;;13.48;100.00;101148.81;20971020;28;19924;-64
2022/10/14 08:24:27;;;;;;;;;;;;;;;13.57;100.00;101142.91;20968064;28;20335;-64
2022/10/14 08:34:48;;;;;;;;;;;;;;;13.54;100.00;101150.97;20968970;28;19928;-63
2022/10/14 08:45:15;;;;;;;;;;;;;;;13.74;100.00;101153.00;20960913;28;19961;-63
2022/10/14 08:55:45;;;;;;;;;;;;;;;14.00;100.00;101146.69;20970692;28;20516;-64
2022/10/14 09:06:13;;;;;;;;;;;;;;;13.97;100.00;101141.72;20956730;28;19994;-64
2022/10/14 09:16:36;;;;;;;;;;;;;;;14.13;100.00;101137.00;20977036;28;19978;-63
2022/10/14 09:27:05;;;;;;;;;;;;;;;14.44;100.00;101124.13;20975702;28;19973;-65
2022/10/14 09:37:28;;;;;;;;;;;;;;;14.42;100.00;101115.53;20956179;28;19920;-64
2022/10/14 09:47:49;;;;;;;;;;;;;;;14.53;100.00;101105.91;20968130;28;19924;-64
2022/10/14 09:58:21;;;;;;;;;;;;;;;14.71;100.00;101120.22;20958070;28;19920;-64
2022/10/14 10:08:51;;;;;;;;;;;;;;;14.41;100.00;101120.91;20959276;28;20373;-64
2022/10/14 10:19:19;;;;;;;;;;;;;;;14.50;100.00;101118.41;20958942;28;19924;-64
2022/10/14 10:29:40;;;;;;;;;;;;;;;14.65;100.00;101096.25;20959669;28;20026;-64
2022/10/14 10:40:08;;;;;;;;;;;;;;;14.51;100.00;101076.31;20956105;28;19943;-65
2022/10/14 10:50:45;;;;;;;;;;;;;;;14.61;100.00;101071.22;20970233;28;19927;-64
2022/10/14 11:01:15;;;;;;;;;;;;;;;14.99;100.00;101063.78;20954273;28;19920;-64
2022/10/14 11:12:01;;;;;;;;;;;;;;;15.28;100.00;101057.94;20966085;28;20388;-64
2022/10/14 11:22:37;;;;;;;;;;;;;;;15.17;100.00;101044.78;20988597;28;19920;-64
2022/10/14 11:33:08;;;;;;;;;;;;;;;15.28;100.00;101028.19;20973560;28;19935;-65
2022/10/14 11:43:44;;;;;;;;;;;;;;;15.05;100.00;101022.13;20962945;28;19936;-64
2022/10/14 11:54:24;;;;;;;;;;;;;;;15.25;100.00;101000.41;20965569;28;20439;-64
2022/10/14 12:04:51;;;;;;;;;;;;;;;15.42;100.00;100985.88;20989578;28;19912;-66
2022/10/14 12:15:15;;;;;;;;;;;;;;;15.67;100.00;100970.59;20972296;28;20431;-64
2022/10/14 12:25:42;;;;;;;;;;;;;;;15.78;100.00;100952.13;20958714;28;20026;-64
2022/10/14 12:36:05;;;;;;;;;;;;;;;15.65;100.00;100951.50;20968007;28;19966;-64
2022/10/14 12:46:27;;;;;;;;;;;;;;;15.70;100.00;100939.63;20947167;28;19928;-65
2022/10/14 12:56:59;;;;;;;;;;;;;;;15.69;100.00;100918.75;20962998;28;20595;-64
2022/10/14 13:07:24;;;;;;;;;;;;;;;15.49;100.00;100909.06;20962609;28;19921;-63
2022/10/14 13:18:19;;;;;;;;;;;;;;;15.72;100.00;100884.28;20959834;28;19970;-63
2022/10/14 13:28:43;;;;;;;;;;;;;;;15.78;100.00;100873.25;20950445;28;19974;-65
2022/10/14 13:39:08;;;;;;;;;;;;;;;15.83;100.00;100855.31;20962152;28;20352;-65
2022/10/14 13:49:33;;;;;;;;;;;;;;;16.11;100.00;100833.56;20953521;28;19971;-63
2022/10/14 13:59:54;;;;;;;;;;;;;;;15.98;100.00;100827.69;20950458;28;19928;-63
2022/10/14 14:10:36;;;;;;;;;;;;;;;15.87;100.00;100820.72;20940521;28;19976;-65
2022/10/14 14:21:20;;;;;;;;;;;;;;;15.53;100.00;100800.09;20932882;28;20045;-67
2022/10/14 14:31:42;;;;;;;;;;;;;;;15.68;100.00;100804.06;20955956;28;19924;-64
2022/10/14 14:46:58;;;;;;;;;;;;;;;15.50;100.00;100764.41;20785106;27;19933;-63
2022/10/14 14:57:21;;;;;;;;;;;;;;;15.46;100.00;100762.16;20703435;28;19934;-63
2022/10/14 15:07:43;;;;;;;;;;;;;;;15.50;100.00;100750.44;20716875;28;19933;-62
2022/10/14 15:18:10;;;;;;;;;;;;;;;15.43;100.00;100746.66;20709176;28;20073;-62
2022/10/14 15:28:31;;;;;;;;;;;;;;;15.34;100.00;100738.75;20718112;28;19926;-62
2022/10/14 15:38:55;;;;;;;;;;;;;;;15.39;100.00;100724.25;20720703;28;19929;-64
2022/10/14 15:49:22;;;;;;;;;;;;;;;15.41;100.00;100703.94;20722502;28;19934;-62
2022/10/14 15:59:43;;;;;;;;;;;;;;;15.32;100.00;100706.53;20662153;28;19971;-63
2022/10/14 16:10:06;;;;;;;;;;;;;;;15.32;100.00;100690.78;20669527;28;20386;-62
2022/10/14 16:20:29;;;;;;;;;;;;;;;15.23;100.00;100684.47;20691877;28;19926;-62
2022/10/14 16:30:50;;;;;;;;;;;;;;;15.19;100.00;100680.44;20703136;28;19926;-62
2022/10/14 16:41:12;;;;;;;;;;;;;;;15.07;100.00;100671.00;20660300;28;19952;-62
2022/10/14 16:51:33;;;;;;;;;;;;;;;15.05;100.00;100667.66;20669784;28;19925;-62
2022/10/14 17:01:55;;;;;;;;;;;;;;;15.10;100.00;100665.50;20695236;28;19978;-62
2022/10/14 17:12:16;;;;;;;;;;;;;;;15.01;100.00;100671.50;20684258;28;20345;-62
2022/10/14 17:22:38;;;;;;;;;;;;;;;15.01;100.00;100660.19;20672737;28;19948;-62
2022/10/14 17:32:59;;;;;;;;;;;;;;;14.94;100.00;100659.03;20647847;28;19948;-61
2022/10/14 17:43:20;;;;;;;;;;;;;;;14.98;100.00;100634.19;20657478;28;20436;-62
2022/10/14 17:53:42;;;;;;;;;;;;;;;14.95;100.00;100630.03;20653303;28;19926;-62
2022/10/14 18:04:03;;;;;;;;;;;;;;;14.97;100.00;100616.78;20686697;28;19933;-62
2022/10/14 18:14:25;;;;;;;;;;;;;;;14.90;100.00;100621.72;20659057;28;19929;-63
2022/10/14 18:24:46;;;;;;;;;;;;;;;14.99;100.00;100620.09;20658044;28;20280;-64
2022/10/14 18:35:08;;;;;;;;;;;;;;;15.03;100.00;100606.56;20667167;28;19926;-62
2022/10/14 18:45:33;;;;;;;;;;;;;;;14.98;100.00;100590.41;20673730;28;19956;-63
2022/10/14 18:55:54;;;;;;;;;;;;;;;14.94;100.00;100585.53;20637221;28;19975;-62
2022/10/14 19:06:21;;;;;;;;;;;;;;;14.90;100.00;100569.22;20646263;28;19930;-63
2022/10/14 19:16:46;;;;;;;;;;;;;;;15.01;100.00;100566.50;20653241;28;20343;-61
2022/10/14 19:27:07;;;;;;;;;;;;;;;14.94;100.00;100557.50;20673473;28;19934;-60
2022/10/14 19:37:28;;;;;;;;;;;;;;;15.03;100.00;100543.56;20682438;28;20270;-62
2022/10/14 19:47:50;;;;;;;;;;;;;;;14.92;100.00;100533.19;20682190;28;19930;-62
2022/10/14 19:58:11;;;;;;;;;;;;;;;14.93;100.00;100529.59;20684628;28;20007;-62
2022/10/14 20:08:33;;;;;;;;;;;;;;;14.97;100.00;100533.63;20659023;28;19926;-62
2022/10/14 20:18:55;;;;;;;;;;;;;;;15.04;100.00;100518.97;20660994;28;19983;-63
2022/10/14 20:29:16;;;;;;;;;;;;;;;15.03;100.00;100506.81;20675530;28;19929;-61
2022/10/14 20:39:37;;;;;;;;;;;;;;;15.04;100.00;100508.47;20663148;28;19925;-61
2022/10/14 20:49:59;;;;;;;;;;;;;;;14.95;100.00;100511.91;20659972;28;20319;-63
2022/10/14 21:00:20;;;;;;;;;;;;;;;14.93;100.00;100516.47;20658476;28;20437;-61
2022/10/14 21:10:42;;;;;;;;;;;;;;;14.88;100.00;100518.66;20655609;28;19933;-61
2022/10/14 21:21:03;;;;;;;;;;;;;;;14.90;100.00;100511.47;20676770;28;19926;-63
2022/10/14 21:31:25;;;;;;;;;;;;;;;14.90;100.00;100500.97;20661013;28;19930;-61
2022/10/14 21:41:46;;;;;;;;;;;;;;;14.81;100.00;100512.28;20661214;28;19926;-62
2022/10/14 21:52:07;;;;;;;;;;;;;;;14.64;100.00;100510.28;20669563;28;20389;-62
2022/10/14 22:02:29;;;;;;;;;;;;;;;14.45;100.00;100499.72;20656521;28;19929;-62
2022/10/14 22:12:50;;;;;;;;;;;;;;;14.34;100.00;100506.81;20654528;28;19926;-62
2022/10/14 22:23:11;;;;;;;;;;;;;;;14.23;100.00;100498.22;20663391;28;20038;-62
2022/10/14 22:33:34;;;;;;;;;;;;;;;14.02;100.00;100499.97;20660868;28;19926;-62
2022/10/14 22:43:56;;;;;;;;;;;;;;;13.96;100.00;100511.00;20653645;28;19926;-62
2022/10/14 22:54:18;;;;;;;;;;;;;;;13.87;100.00;100511.75;20648937;28;19955;-63
2022/10/14 23:04:39;;;;;;;;;;;;;;;13.80;100.00;100510.59;20693918;28;19961;-62
2022/10/14 23:15:00;;;;;;;;;;;;;;;13.68;100.00;100501.16;20674694;28;20278;-63
2022/10/14 23:25:22;;;;;;;;;;;;;;;13.55;100.00;100505.69;20661671;28;19981;-62
2022/10/14 23:35:43;;;;;;;;;;;;;;;13.48;100.00;100509.78;20665078;28;19926;-63
2022/10/14 23:46:05;;;;;;;;;;;;;;;13.29;100.00;100514.84;20677039;28;19979;-62
2022/10/14 23:56:27;;;;;;;;;;;;;;;13.42;100.00;100504.22;20696475;28;19983;-61
